Time;durP1;ratioP1;P1;durP2;ratioP2;P2;SDS_P1;SDS_P2;PMS_P1;PMS_P2;Temp;Humidity;BMP_temperature;BMP_pressure;BME280_temperature;BME280_humidity;BME280_pressure;Samples;Min_cycle;Max_cycle;Signal;HPM_P1;HPM_P2
2020/12/19 00:00:07;;;;;;;17.30;9.07;;;10.70;99.90;;;9.84;98.37;100516.03;4072887;29;20069;-70
2020/12/19 00:02:08;;;;;;;20.38;9.88;;;10.60;99.90;;;9.83;98.37;100501.19;4057722;29;20068;-70
2020/12/19 00:04:09;;;;;;;15.60;9.85;;;10.70;99.90;;;9.97;98.03;100497.16;4082115;29;20498;-70
2020/12/19 00:06:10;;;;;;;16.75;9.00;;;10.80;99.90;;;9.80;98.43;100500.66;4089891;29;20031;-70
2020/12/19 00:08:11;;;;;;;19.50;9.60;;;10.70;99.90;;;9.77;98.74;100486.00;4089767;29;20024;-70
2020/12/19 00:10:12;;;;;;;17.45;9.88;;;10.70;99.90;;;9.89;98.83;100486.56;4088637;29;20028;-70
2020/12/19 00:12:13;;;;;;;18.35;8.70;;;10.70;99.90;;;9.87;98.71;100478.81;4073067;29;20032;-70
2020/12/19 00:14:14;;;;;;;16.55;8.60;;;10.70;99.90;;;9.93;98.82;100477.38;4088499;29;20043;-70
2020/12/19 00:16:18;;;;;;;14.82;9.82;;;10.80;99.90;;;9.95;98.74;100473.59;4072863;29;20080;-70
2020/12/19 00:18:19;;;;;;;15.70;8.18;;;10.80;99.90;;;10.03;98.57;100468.34;4088783;29;20043;-70
2020/12/19 00:20:21;;;;;;;17.55;8.35;;;10.80;99.90;;;10.02;98.86;100465.88;4072969;29;20028;-70
2020/12/19 00:22:21;;;;;;;21.05;9.35;;;10.80;99.90;;;9.99;98.78;100453.84;4072786;29;20032;-70
2020/12/19 00:24:22;;;;;;;16.20;9.43;;;10.80;99.90;;;10.03;98.59;100449.09;4089349;29;20034;-70
2020/12/19 00:26:38;;;;;;;19.98;9.48;;;10.80;99.90;;;10.06;98.35;100446.13;4088623;29;20035;-70
2020/12/19 00:28:40;;;;;;;20.98;9.23;;;10.80;99.90;;;10.08;98.17;100438.88;4072853;29;20067;-70
2020/12/19 00:30:41;;;;;;;12.68;8.93;;;10.80;99.90;;;10.06;98.50;100432.13;4054265;29;20061;-70
2020/12/19 00:32:42;;;;;;;17.83;9.38;;;10.80;99.90;;;10.07;98.42;100420.56;4072653;29;20028;-70
2020/12/19 00:34:43;;;;;;;17.35;9.10;;;10.80;99.90;;;10.08;98.49;100417.81;4072781;29;20042;-70
2020/12/19 00:36:45;;;;;;;17.48;9.57;;;10.90;99.90;;;10.13;98.44;100422.56;4072771;29;20047;-70
2020/12/19 00:38:46;;;;;;;16.75;7.32;;;10.90;99.90;;;10.12;98.69;100421.78;4088240;29;20458;-70
2020/12/19 00:40:47;;;;;;;19.40;8.75;;;10.90;99.90;;;10.11;98.80;100414.00;4088060;29;20059;-70
2020/12/19 00:42:47;;;;;;;15.20;8.50;;;10.90;99.90;;;10.11;98.96;100411.38;4072542;29;20055;-70
2020/12/19 00:44:48;;;;;;;17.38;8.50;;;10.80;99.90;;;10.09;98.63;100406.28;4089379;29;20487;-70
2020/12/19 00:46:52;;;;;;;15.75;7.35;;;10.90;99.90;;;10.16;98.67;100394.13;4089328;29;20126;-70
2020/12/19 00:48:53;;;;;;;15.98;6.95;;;10.90;99.90;;;10.15;98.86;100381.13;4096936;29;20028;-70
2020/12/19 00:50:54;;;;;;;16.92;7.97;;;10.90;99.90;;;10.19;99.04;100367.44;4089414;29;20410;-70
2020/12/19 00:52:55;;;;;;;17.95;7.18;;;10.90;99.90;;;10.20;99.21;100368.28;4072379;29;20028;-70
2020/12/19 00:54:56;;;;;;;16.80;7.68;;;10.90;99.90;;;10.19;99.24;100385.06;4072061;29;20479;-70
2020/12/19 00:56:56;;;;;;;17.02;7.68;;;10.90;99.90;;;10.07;99.87;100376.59;4089260;29;20039;-70
2020/12/19 00:58:57;;;;;;;21.85;7.60;;;10.90;99.90;;;10.15;100.00;100378.47;4088163;29;20028;-70
2020/12/19 01:00:58;;;;;;;11.98;6.72;;;10.90;99.90;;;10.21;99.66;100388.38;4072233;29;20036;-70
2020/12/19 01:02:59;;;;;;;12.15;7.28;;;10.90;99.90;;;10.26;99.45;100393.97;4087976;29;20028;-70
2020/12/19 01:05:00;;;;;;;15.40;7.65;;;10.90;99.90;;;10.21;99.25;100397.13;4056469;29;20032;-70
2020/12/19 01:07:01;;;;;;;23.05;7.72;;;11.00;99.90;;;10.17;99.55;100390.50;4081268;29;20042;-70
2020/12/19 01:09:05;;;;;;;19.83;7.38;;;10.90;99.90;;;10.10;100.00;100399.19;4088759;29;20031;-70
2020/12/19 01:11:06;;;;;;;20.45;7.20;;;10.90;99.90;;;10.26;99.89;100412.44;4087839;29;20031;-70
2020/12/19 01:13:06;;;;;;;13.75;6.35;;;10.90;99.90;;;10.24;99.83;100395.97;4087623;29;20036;-70
2020/12/19 01:15:08;;;;;;;23.70;7.72;;;11.00;99.90;;;10.22;99.69;100393.47;4072075;29;20040;-70
2020/12/19 01:17:09;;;;;;;16.83;6.80;;;11.00;99.90;;;10.19;100.00;100395.59;4087716;29;20404;-70
2020/12/19 01:19:10;;;;;;;17.92;6.78;;;11.00;99.90;;;10.19;100.00;100390.34;4088848;29;20043;-70
2020/12/19 01:21:18;;;;;;;15.25;7.07;;;11.00;99.90;;;10.23;100.00;100379.31;4088710;29;20403;-70
2020/12/19 01:23:19;;;;;;;14.18;7.88;;;11.00;99.90;;;10.24;100.00;100374.88;4087451;29;20082;-71
2020/12/19 01:25:20;;;;;;;15.10;6.65;;;11.00;99.90;;;10.33;100.00;100382.63;4088652;29;20028;-70
2020/12/19 01:27:21;;;;;;;14.05;6.10;;;11.00;99.90;;;10.18;100.00;100375.53;4071660;29;20087;-71
2020/12/19 01:29:22;;;;;;;12.43;6.72;;;11.00;99.90;;;10.30;100.00;100385.59;4071578;29;20495;-70
2020/12/19 01:31:23;;;;;;;22.85;8.60;;;11.00;99.90;;;10.36;100.00;100384.13;4087673;29;20027;-70
2020/12/19 01:33:24;;;;;;;17.95;7.10;;;11.00;99.90;;;10.35;100.00;100382.47;4087489;29;20035;-70
2020/12/19 01:35:25;;;;;;;12.82;6.95;;;11.00;99.90;;;10.27;100.00;100377.19;4088485;29;20023;-70
2020/12/19 01:37:26;;;;;;;14.70;6.85;;;11.00;99.90;;;10.22;100.00;100364.47;4087319;29;20036;-70
2020/12/19 01:39:27;;;;;;;22.27;7.18;;;11.00;99.90;;;10.35;100.00;100374.56;4088509;29;20044;-70
2020/12/19 01:41:28;;;;;;;17.08;7.13;;;11.00;99.90;;;10.41;100.00;100368.63;4087779;29;20060;-70
2020/12/19 01:43:55;;;;;;;16.15;6.68;;;11.10;99.90;;;10.21;100.00;100356.75;4087301;29;20036;-70
2020/12/19 01:45:56;;;;;;;17.63;6.65;;;11.00;99.90;;;10.35;100.00;100351.66;4072191;29;20028;-70
2020/12/19 01:47:57;;;;;;;19.27;6.70;;;11.10;99.90;;;10.32;100.00;100335.34;4087208;29;20364;-70
2020/12/19 01:49:58;;;;;;;24.05;7.03;;;11.10;99.90;;;10.34;100.00;100344.72;4075993;29;20087;-70
2020/12/19 01:52:04;;;;;;;18.95;7.25;;;11.10;99.90;;;10.24;100.00;100336.16;4071453;29;20035;-70
2020/12/19 01:54:09;;;;;;;19.80;6.78;;;11.10;99.90;;;10.30;100.00;100332.88;4087171;29;20034;-70
2020/12/19 01:56:11;;;;;;;14.40;6.75;;;11.00;99.90;;;10.24;100.00;100332.69;4087518;29;20080;-70
2020/12/19 01:58:12;;;;;;;18.67;7.35;;;11.00;99.90;;;10.28;100.00;100332.19;4087172;29;20038;-70
2020/12/19 02:00:12;;;;;;;20.33;6.97;;;11.00;99.90;;;10.33;100.00;100326.44;4087031;29;20054;-70
2020/12/19 02:02:16;;;;;;;19.52;7.50;;;11.00;99.90;;;10.35;100.00;100324.47;4071549;29;20028;-70
2020/12/19 02:04:19;;;;;;;24.08;6.80;;;11.10;99.90;;;10.41;100.00;100348.38;4087168;29;20032;-70
2020/12/19 02:06:22;;;;;;;21.98;7.28;;;11.10;99.90;;;10.38;100.00;100337.31;4088220;29;20036;-70
2020/12/19 02:08:23;;;;;;;17.90;8.13;;;11.10;99.90;;;10.22;100.00;100332.03;4086744;29;20535;-70
2020/12/19 02:10:24;;;;;;;18.13;7.20;;;11.00;99.90;;;10.28;100.00;100344.53;4087109;29;20031;-70
2020/12/19 02:12:25;;;;;;;20.42;7.63;;;11.00;99.90;;;10.41;100.00;100342.25;4071280;29;20024;-70
2020/12/19 02:14:29;;;;;;;13.02;6.35;;;11.10;99.90;;;10.47;100.00;100344.25;4071112;29;20047;-70
2020/12/19 02:16:30;;;;;;;18.98;7.15;;;11.10;99.90;;;10.45;100.00;100352.28;4087077;29;20106;-70
2020/12/19 02:18:31;;;;;;;17.33;6.70;;;11.10;99.90;;;10.44;100.00;100341.94;4088156;29;20055;-70
2020/12/19 02:20:32;;;;;;;16.52;7.57;;;11.10;99.90;;;10.37;100.00;100330.38;4087037;29;20495;-70
2020/12/19 02:22:34;;;;;;;22.73;7.80;;;11.10;99.90;;;10.26;100.00;100320.16;4071134;29;20404;-70
2020/12/19 02:24:36;;;;;;;16.27;6.70;;;11.10;99.90;;;10.37;100.00;100328.56;4086616;29;20028;-70
2020/12/19 02:26:37;;;;;;;16.65;7.63;;;11.10;99.90;;;10.42;100.00;100320.97;4071180;29;20028;-70
2020/12/19 02:28:38;;;;;;;21.73;8.18;;;11.10;99.90;;;10.36;100.00;100326.91;4088113;29;20514;-70
2020/12/19 02:30:38;;;;;;;22.17;7.22;;;11.20;99.90;;;10.35;100.00;100329.72;4087967;29;20032;-70
2020/12/19 02:32:41;;;;;;;19.05;6.88;;;11.10;99.90;;;10.40;100.00;100324.78;4088022;29;20059;-70
2020/12/19 02:34:41;;;;;;;19.75;7.47;;;11.10;99.90;;;10.36;100.00;100334.03;4088117;29;20387;-70
2020/12/19 02:36:43;;;;;;;20.17;7.88;;;11.20;99.90;;;10.32;100.00;100324.78;4070953;29;20036;-70
2020/12/19 02:38:44;;;;;;;22.80;7.57;;;11.20;99.90;;;10.31;100.00;100320.50;4070846;29;20060;-70
2020/12/19 02:40:44;;;;;;;16.45;7.68;;;11.20;99.90;;;10.30;100.00;100326.78;4086499;29;20047;-70
2020/12/19 02:42:45;;;;;;;20.35;7.32;;;11.10;99.90;;;10.46;100.00;100319.69;4070837;29;20031;-70
2020/12/19 02:44:46;;;;;;;18.35;6.47;;;11.10;99.90;;;10.48;100.00;100324.81;4087786;29;20039;-70
2020/12/19 02:46:48;;;;;;;17.80;6.60;;;11.20;99.90;;;10.51;100.00;100295.47;4087634;29;20040;-70
2020/12/19 02:48:49;;;;;;;21.02;7.95;;;11.20;99.90;;;10.45;100.00;100301.41;4070573;29;20039;-70
2020/12/19 02:50:50;;;;;;;17.13;7.57;;;11.20;99.90;;;10.41;100.00;100297.44;4070923;29;20024;-70
2020/12/19 02:52:51;;;;;;;19.50;6.05;;;11.20;99.90;;;10.47;100.00;100312.59;4070955;29;20028;-70
2020/12/19 02:54:52;;;;;;;12.15;5.55;;;11.20;99.90;;;10.50;100.00;100297.28;4090506;29;20024;-70
2020/12/19 02:56:53;;;;;;;23.67;6.53;;;11.30;99.90;;;10.51;100.00;100298.91;4089733;29;20087;-70
2020/12/19 02:58:54;;;;;;;19.08;7.35;;;11.30;99.90;;;10.57;100.00;100299.25;4091023;29;20618;-70
2020/12/19 03:00:54;;;;;;;21.90;6.68;;;11.30;99.90;;;10.57;100.00;100300.06;4089673;29;20042;-70
2020/12/19 03:02:55;;;;;;;20.63;6.80;;;11.30;99.90;;;10.60;100.00;100296.28;4073841;29;20595;-70
2020/12/19 03:04:56;;;;;;;16.13;5.72;;;11.30;99.90;;;10.52;100.00;100295.28;4058315;29;20096;-70
2020/12/19 03:06:57;;;;;;;16.23;5.50;;;11.40;99.90;;;10.49;100.00;100294.78;4062715;29;20032;-70
2020/12/19 03:08:58;;;;;;;19.08;6.50;;;11.30;99.90;;;10.47;100.00;100280.94;4090475;29;20083;-70
2020/12/19 03:10:59;;;;;;;17.02;5.88;;;11.30;99.90;;;10.57;100.00;100286.88;4089801;29;20048;-70
2020/12/19 03:13:00;;;;;;;22.70;6.05;;;11.30;99.90;;;10.61;100.00;100293.44;4090576;29;20063;-70
2020/12/19 03:15:01;;;;;;;15.80;5.15;;;11.40;99.90;;;10.56;100.00;100285.22;4089604;29;20035;-70
2020/12/19 03:17:02;;;;;;;23.10;7.10;;;11.40;99.90;;;10.68;100.00;100283.91;4090714;29;20046;-70
2020/12/19 03:19:03;;;;;;;17.20;5.40;;;11.40;99.90;;;10.80;100.00;100285.19;4089505;29;20020;-70
2020/12/19 03:21:04;;;;;;;16.95;4.85;;;11.50;99.90;;;10.80;100.00;100279.09;4073641;29;20535;-70
2020/12/19 03:23:05;;;;;;;13.02;5.13;;;11.50;99.90;;;10.81;100.00;100278.09;4089468;29;20031;-70
2020/12/19 03:25:06;;;;;;;14.20;4.50;;;11.60;99.90;;;10.83;100.00;100266.38;4090662;29;20038;-70
2020/12/19 03:27:07;;;;;;;16.30;4.28;;;11.60;99.90;;;10.87;100.00;100282.69;4090345;29;20032;-70
2020/12/19 03:29:08;;;;;;;10.07;3.28;;;11.70;99.90;;;10.88;100.00;100271.97;4089233;29;20055;-70
2020/12/19 03:31:09;;;;;;;14.65;4.40;;;11.70;99.90;;;11.00;100.00;100282.97;4073527;29;20020;-70
2020/12/19 03:33:10;;;;;;;13.40;3.25;;;11.70;99.90;;;11.03;100.00;100283.47;4089335;29;20558;-70
2020/12/19 03:35:11;;;;;;;15.93;4.60;;;11.80;99.90;;;11.00;100.00;100289.09;4073582;29;20431;-70
2020/12/19 03:37:11;;;;;;;7.15;3.10;;;11.80;99.90;;;10.91;100.00;100268.16;4089124;29;20042;-70
2020/12/19 03:39:12;;;;;;;13.38;3.70;;;11.80;99.90;;;10.98;100.00;100290.25;4073274;29;20407;-70
2020/12/19 03:41:13;;;;;;;11.23;3.00;;;11.80;99.90;;;10.97;100.00;100297.34;4077501;29;20059;-70
2020/12/19 03:43:14;;;;;;;10.43;3.08;;;11.90;99.90;;;10.96;100.00;100298.31;4065988;29;20036;-70
2020/12/19 03:45:15;;;;;;;12.55;3.33;;;11.80;99.90;;;11.10;100.00;100294.16;4073370;29;20060;-70
2020/12/19 03:47:16;;;;;;;12.40;2.80;;;11.90;99.90;;;11.02;100.00;100283.66;4074501;29;20040;-70
2020/12/19 03:49:16;;;;;;;11.95;3.42;;;11.90;99.90;;;11.01;100.00;100293.38;4083380;29;20020;-70
2020/12/19 03:51:17;;;;;;;11.07;3.70;;;11.90;99.90;;;11.00;100.00;100286.44;4073323;29;20063;-70
2020/12/19 03:53:18;;;;;;;17.50;3.53;;;11.90;99.90;;;11.08;100.00;100288.22;4074139;29;20025;-70
2020/12/19 03:55:19;;;;;;;9.63;3.15;;;11.90;99.90;;;11.10;100.00;100286.25;4074286;29;20039;-70
2020/12/19 03:57:20;;;;;;;13.15;4.00;;;11.90;99.90;;;11.10;100.00;100296.81;4057472;29;20032;-70
2020/12/19 03:59:21;;;;;;;17.40;3.42;;;12.00;99.90;;;11.06;100.00;100298.13;4074285;29;20105;-70
2020/12/19 04:01:22;;;;;;;22.77;4.53;;;12.00;99.90;;;11.10;100.00;100310.00;4057313;29;20052;-70
2020/12/19 04:03:22;;;;;;;21.10;4.45;;;12.00;99.90;;;11.17;100.00;100304.88;4074107;29;20043;-70
2020/12/19 04:05:23;;;;;;;26.40;4.75;;;12.00;99.90;;;11.24;100.00;100300.53;4072537;29;20500;-70
2020/12/19 04:07:24;;;;;;;24.80;3.70;;;12.00;99.90;;;11.24;100.00;100304.00;4074156;29;20040;-70
2020/12/19 04:09:25;;;;;;;11.20;3.38;;;12.10;99.90;;;11.31;100.00;100314.72;4072729;29;20032;-70
2020/12/19 04:11:26;;;;;;;16.08;3.25;;;12.10;99.90;;;11.42;100.00;100320.44;4057256;29;20563;-70
2020/12/19 04:13:27;;;;;;;18.52;4.63;;;12.10;99.90;;;11.41;100.00;100313.50;4069495;29;20036;-70
2020/12/19 04:15:28;;;;;;;12.40;3.20;;;12.20;99.90;;;11.44;100.00;100317.66;4074084;29;20021;-70
2020/12/19 04:17:29;;;;;;;19.58;3.58;;;12.20;99.90;;;11.48;100.00;100330.31;4072936;29;20032;-70
2020/12/19 04:19:30;;;;;;;18.38;3.53;;;12.30;99.90;;;11.44;100.00;100320.28;4073885;29;20064;-70
2020/12/19 04:21:31;;;;;;;13.18;3.88;;;12.30;99.90;;;11.49;100.00;100317.94;4073789;29;20090;-70
2020/12/19 04:23:33;;;;;;;24.52;3.83;;;12.30;99.90;;;11.58;100.00;100309.00;4073891;29;20032;-70
2020/12/19 04:25:33;;;;;;;22.05;4.43;;;12.40;99.90;;;11.53;100.00;100322.69;4057140;29;20043;-70
2020/12/19 04:27:34;;;;;;;12.60;2.60;;;12.40;99.90;;;11.60;100.00;100328.13;4057305;29;20628;-70
2020/12/19 04:29:35;;;;;;;24.45;4.25;;;12.40;99.90;;;11.59;100.00;100322.00;4078067;29;20076;-70
2020/12/19 04:31:36;;;;;;;23.58;5.78;;;12.40;99.90;;;11.60;100.00;100331.59;4080462;29;20032;-70
2020/12/19 04:33:37;;;;;;;22.25;4.38;;;12.50;99.90;;;11.59;100.00;100337.88;4083908;29;20031;-70
2020/12/19 04:35:38;;;;;;;19.98;4.20;;;12.50;99.90;;;11.68;100.00;100345.78;4087392;29;20020;-70
2020/12/19 04:37:39;;;;;;;16.35;3.38;;;12.50;99.90;;;11.66;100.00;100340.66;4084717;29;20031;-70
2020/12/19 04:39:39;;;;;;;24.63;4.95;;;12.50;99.90;;;11.57;100.00;100339.88;4089017;29;20031;-70
2020/12/19 04:41:41;;;;;;;23.73;5.03;;;12.40;99.90;;;11.61;100.00;100335.88;4103450;29;20039;-70
2020/12/19 04:43:42;;;;;;;30.08;4.68;;;12.50;99.90;;;11.70;100.00;100341.16;4086042;29;20135;-70
2020/12/19 04:45:44;;;;;;;24.67;4.97;;;12.50;99.90;;;11.66;100.00;100322.16;4099546;29;20032;-70
2020/12/19 04:47:45;;;;;;;20.13;4.85;;;12.50;99.90;;;11.74;100.00;100324.78;4085923;29;20020;-70
2020/12/19 04:49:47;;;;;;;31.05;4.93;;;12.50;99.90;;;11.69;100.00;100313.88;4087416;29;20024;-70
2020/12/19 04:51:48;;;;;;;27.90;4.78;;;12.50;99.90;;;11.72;100.00;100320.66;4087188;29;20016;-70
2020/12/19 04:53:49;;;;;;;24.90;5.25;;;12.60;99.90;;;11.67;100.00;100321.16;4101021;29;20078;-70
2020/12/19 04:55:50;;;;;;;19.70;4.63;;;12.50;99.90;;;11.69;100.00;100327.09;4102832;29;20030;-70
2020/12/19 04:57:57;;;;;;;20.42;5.15;;;12.50;99.90;;;11.68;100.00;100320.97;4085548;29;20055;-70
2020/12/19 04:59:58;;;;;;;21.45;4.80;;;12.50;99.90;;;11.71;100.00;100325.13;4082334;29;20074;-71
2020/12/19 05:02:00;;;;;;;22.65;5.35;;;12.40;99.90;;;11.56;100.00;100330.28;4103911;29;20031;-70
2020/12/19 05:04:01;;;;;;;22.10;4.13;;;12.40;99.90;;;11.54;100.00;100323.53;4103737;29;20042;-70
2020/12/19 05:06:02;;;;;;;23.13;4.13;;;12.40;99.90;;;11.59;100.00;100334.38;4103430;29;20027;-70
2020/12/19 05:08:03;;;;;;;23.50;4.25;;;12.40;99.90;;;11.63;100.00;100349.75;4085572;29;20027;-70
2020/12/19 05:10:04;;;;;;;25.75;5.13;;;12.40;99.90;;;11.60;100.00;100350.09;4072295;29;20210;-70
2020/12/19 05:12:05;;;;;;;28.70;5.18;;;12.30;99.90;;;11.66;100.00;100364.41;4072239;29;20035;-70
2020/12/19 05:14:07;;;;;;;21.42;4.78;;;12.30;99.90;;;11.62;100.00;100353.38;4088982;29;20035;-70
2020/12/19 05:16:10;;;;;;;25.13;5.15;;;12.40;99.90;;;11.54;100.00;100350.78;4087039;29;20161;-70
2020/12/19 05:18:11;;;;;;;31.30;4.97;;;12.30;99.90;;;11.69;100.00;100364.09;4072245;29;20032;-70
2020/12/19 05:20:12;;;;;;;23.67;5.20;;;12.40;99.90;;;11.68;100.00;100362.41;4088990;29;20024;-70
2020/12/19 05:22:16;;;;;;;27.45;5.20;;;12.40;99.90;;;11.68;100.00;100371.19;4088893;29;20036;-70
2020/12/19 05:24:17;;;;;;;28.90;5.30;;;12.40;99.90;;;11.67;100.00;100368.72;4087378;29;20027;-70
2020/12/19 05:26:18;;;;;;;24.52;5.20;;;12.40;99.90;;;11.70;100.00;100372.88;4088975;29;20475;-70
2020/12/19 05:28:20;;;;;;;27.42;4.82;;;12.40;99.90;;;11.71;100.00;100380.59;4088823;29;20031;-70
2020/12/19 05:30:22;;;;;;;30.40;5.63;;;12.40;99.90;;;11.61;100.00;100372.06;4087709;29;20399;-70
2020/12/19 05:32:24;;;;;;;27.95;6.13;;;12.40;99.90;;;11.75;100.00;100387.22;4072110;29;20397;-70
2020/12/19 05:34:26;;;;;;;26.63;5.22;;;12.40;99.90;;;11.68;100.00;100368.53;4071782;29;20073;-70
2020/12/19 05:36:28;;;;;;;22.77;4.88;;;12.40;99.90;;;11.68;100.00;100373.81;4071948;29;20032;-70
2020/12/19 05:38:30;;;;;;;19.00;4.40;;;12.40;99.90;;;11.77;100.00;100376.47;4071536;29;20035;-70
2020/12/19 05:40:33;;;;;;;30.63;4.60;;;12.40;99.90;;;11.74;100.00;100377.63;4071547;29;20048;-70
2020/12/19 05:42:35;;;;;;;27.40;5.65;;;12.40;99.90;;;11.68;100.00;100380.91;4087348;29;20028;-70
2020/12/19 05:44:41;;;;;;;27.23;5.45;;;12.50;99.90;;;11.67;100.00;100376.66;4088590;29;20435;-70
2020/12/19 05:46:42;;;;;;;29.95;6.30;;;12.40;99.90;;;11.59;100.00;100368.72;4087316;29;20599;-71
2020/12/19 05:48:44;;;;;;;31.70;5.75;;;12.40;99.90;;;11.58;100.00;100377.69;4097260;29;20019;-71
2020/12/19 05:50:45;;;;;;;42.60;5.95;;;12.40;99.90;;;11.60;100.00;100375.69;4088592;29;20047;-71
2020/12/19 05:52:47;;;;;;;27.25;6.07;;;12.40;99.90;;;11.49;100.00;100383.97;4088497;29;20491;-70
2020/12/19 05:54:53;;;;;;;32.20;5.15;;;12.30;99.90;;;11.49;100.00;100383.97;4088361;29;20517;-70
2020/12/19 05:56:55;;;;;;;36.22;5.43;;;12.30;99.90;;;11.53;100.00;100374.69;4071417;29;20039;-70
2020/12/19 05:59:02;;;;;;;33.90;4.80;;;12.30;99.90;;;11.56;100.00;100379.63;4087426;29;20099;-70
2020/12/19 06:01:07;;;;;;;27.40;5.80;;;12.30;99.90;;;11.48;100.00;100387.59;4071562;29;20384;-70
2020/12/19 06:03:09;;;;;;;32.13;6.05;;;12.20;99.90;;;11.49;100.00;100390.09;4087162;29;20042;-70
2020/12/19 06:05:13;;;;;;;33.50;6.10;;;12.20;99.90;;;11.54;100.00;100400.13;4087272;29;20439;-70
2020/12/19 06:07:14;;;;;;;20.65;5.47;;;12.20;99.90;;;11.45;100.00;100401.16;4088313;29;20119;-70
2020/12/19 06:09:16;;;;;;;36.65;5.63;;;12.10;99.90;;;11.40;100.00;100412.25;4086929;29;20036;-70
2020/12/19 06:11:23;;;;;;;31.45;6.18;;;12.10;99.90;;;11.41;100.00;100418.34;4071309;29;20028;-70
2020/12/19 06:13:26;;;;;;;30.08;6.13;;;12.00;99.90;;;11.45;100.00;100409.06;4071295;29;20103;-71
2020/12/19 06:15:51;;;;;;;28.95;5.80;;;12.00;99.90;;;11.37;100.00;100428.41;4071232;29;20036;-70
2020/12/19 06:18:00;;;;;;;25.83;5.07;;;12.00;99.90;;;11.33;100.00;100418.34;4088161;29;20510;-70
2020/12/19 06:20:05;;;;;;;23.75;4.65;;;11.90;99.90;;;11.33;100.00;100426.28;4086876;29;20047;-71
2020/12/19 06:22:06;;;;;;;29.73;6.60;;;11.80;99.90;;;11.31;100.00;100428.25;4071153;29;20122;-70
2020/12/19 06:24:08;;;;;;;27.17;5.78;;;11.90;99.90;;;11.40;100.00;100428.09;4087917;29;20483;-70
2020/12/19 06:26:11;;;;;;;28.08;5.30;;;11.80;99.90;;;11.37;100.00;100433.72;4087966;29;20031;-70
2020/12/19 06:28:41;;;;;;;30.48;6.82;;;11.90;99.90;;;11.22;100.00;100442.47;4086635;29;20178;-70
2020/12/19 06:30:42;;;;;;;32.30;5.10;;;11.90;99.90;;;11.18;100.00;100438.50;4086368;29;20031;-71
2020/12/19 06:32:43;;;;;;;39.80;6.45;;;11.80;99.90;;;11.11;100.00;100439.16;4071011;29;20031;-71
2020/12/19 06:34:57;;;;;;;31.08;5.18;;;11.80;99.90;;;11.22;100.00;100440.66;4086956;29;20427;-70
2020/12/19 06:37:05;;;;;;;27.92;5.90;;;11.80;99.90;;;11.21;100.00;100448.72;4071139;29;20047;-70
2020/12/19 06:39:05;;;;;;;25.48;5.93;;;11.80;99.90;;;11.27;100.00;100456.00;4070649;29;20099;-70
2020/12/19 06:41:07;;;;;;;28.90;5.45;;;11.80;99.90;;;11.21;100.00;100451.38;4087736;29;20075;-70
2020/12/19 06:43:15;;;;;;;32.17;6.13;;;11.80;99.90;;;11.13;100.00;100456.66;4087959;29;20028;-70
2020/12/19 06:45:22;;;;;;;29.95;7.15;;;11.70;99.90;;;11.13;100.00;100457.50;4071010;29;20036;-70
2020/12/19 06:47:23;;;;;;;28.42;5.65;;;11.60;99.90;;;11.07;100.00;100443.16;4071088;29;20024;-71
2020/12/19 06:49:24;;;;;;;27.52;5.68;;;11.60;99.90;;;10.99;100.00;100461.63;4063863;29;20040;-70
2020/12/19 06:51:25;;;;;;;29.50;5.30;;;11.60;99.90;;;10.91;100.00;100445.78;4082136;29;20106;-70
2020/12/19 06:53:28;;;;;;;25.30;4.72;;;11.50;99.90;;;10.95;100.00;100464.75;4086212;29;20443;-70
2020/12/19 06:55:29;;;;;;;35.00;5.97;;;11.40;99.90;;;10.82;100.00;100465.25;4071181;29;20448;-70
2020/12/19 06:57:31;;;;;;;28.05;4.68;;;11.40;99.90;;;10.74;100.00;100462.63;4070784;29;20399;-70
2020/12/19 06:59:34;;;;;;;27.80;5.53;;;11.30;99.90;;;10.69;100.00;100467.56;4070968;29;20067;-70
2020/12/19 07:01:35;;;;;;;36.40;5.28;;;11.20;99.90;;;10.77;100.00;100458.81;4070810;29;20099;-70
2020/12/19 07:03:38;;;;;;;26.95;5.70;;;11.30;99.90;;;10.83;100.00;100466.91;4086744;29;20443;-70
2020/12/19 07:05:39;;;;;;;28.88;7.00;;;11.20;99.90;;;10.72;100.00;100461.94;4071109;29;20040;-70
2020/12/19 07:07:40;;;;;;;22.77;5.97;;;11.20;99.90;;;10.67;100.00;100456.34;4086542;29;20035;-70
2020/12/19 07:09:42;;;;;;;26.83;5.72;;;11.20;99.90;;;10.66;100.00;100461.78;4070561;29;20025;-70
2020/12/19 07:11:42;;;;;;;33.83;5.30;;;11.20;99.90;;;10.71;100.00;100451.56;4070866;29;20024;-70
2020/12/19 07:13:52;;;;;;;35.30;5.78;;;11.20;99.90;;;10.71;100.00;100462.94;4087861;29;20031;-70
2020/12/19 07:15:53;;;;;;;35.42;5.93;;;11.20;99.90;;;10.62;100.00;100466.56;4086475;29;20079;-70
2020/12/19 07:17:54;;;;;;;32.33;5.47;;;11.20;99.90;;;10.68;100.00;100473.00;4086406;29;20487;-70
2020/12/19 07:20:01;;;;;;;24.27;5.30;;;11.20;99.90;;;10.68;100.00;100460.63;4070828;29;20576;-70
2020/12/19 07:22:02;;;;;;;29.08;4.95;;;11.20;99.90;;;10.48;100.00;100459.28;4070482;29;20036;-70
2020/12/19 07:24:03;;;;;;;32.30;5.25;;;11.20;99.90;;;10.51;100.00;100466.88;4087383;29;20398;-70
2020/12/19 07:26:05;;;;;;;31.45;5.40;;;11.10;99.90;;;10.63;100.00;100470.03;4070458;29;20084;-70
2020/12/19 07:28:06;;;;;;;32.22;4.80;;;11.10;99.90;;;10.76;100.00;100473.81;4070657;29;20033;-70
2020/12/19 07:30:07;;;;;;;27.25;4.55;;;11.20;99.90;;;10.77;99.85;100467.56;4087578;29;20028;-70
2020/12/19 07:32:10;;;;;;;27.67;5.05;;;11.30;99.90;;;10.76;99.52;100471.19;4086353;29;20167;-70
2020/12/19 07:34:11;;;;;;;34.45;5.88;;;11.30;99.90;;;10.80;99.84;100472.50;4070383;29;20033;-70
2020/12/19 07:36:13;;;;;;;29.25;5.72;;;11.30;99.90;;;10.84;99.45;100473.81;4070734;29;20024;-70
2020/12/19 07:38:14;;;;;;;22.27;4.75;;;11.30;99.90;;;10.71;99.93;100489.31;4070210;29;20063;-70
2020/12/19 07:40:15;;;;;;;25.65;4.60;;;11.40;99.90;;;10.78;99.73;100495.56;4088059;29;20055;-70
2020/12/19 07:42:17;;;;;;;30.13;4.97;;;11.40;99.90;;;10.79;100.00;100502.50;4116183;28;20109;-70
2020/12/19 07:44:19;;;;;;;37.25;7.03;;;11.40;99.90;;;10.81;100.00;100505.00;4119146;28;20027;-70
2020/12/19 07:46:20;;;;;;;27.67;4.45;;;11.50;99.90;;;10.85;100.00;100495.75;4118089;28;20035;-70
2020/12/19 07:48:21;;;;;;;27.60;6.43;;;11.50;99.90;;;10.85;100.00;100501.03;4111401;28;20030;-71
2020/12/19 07:50:26;;;;;;;24.25;4.40;;;11.50;99.90;;;10.87;100.00;100514.91;4090921;29;20031;-71
2020/12/19 07:52:26;;;;;;;26.98;7.38;;;11.50;99.90;;;10.82;100.00;100510.09;4089024;29;20076;-71
2020/12/19 07:54:27;;;;;;;28.35;5.85;;;11.50;99.90;;;10.96;99.99;100508.66;4088755;29;20032;-71
2020/12/19 07:56:30;;;;;;;28.80;5.40;;;11.60;99.90;;;10.95;99.69;100513.09;4088953;29;20046;-71
2020/12/19 07:58:35;;;;;;;23.23;4.32;;;11.60;99.90;;;11.05;99.80;100520.88;4111742;28;20082;-71
2020/12/19 08:00:36;;;;;;;30.13;6.38;;;11.60;99.90;;;11.09;99.57;100516.88;4087858;29;20491;-71
2020/12/19 08:02:37;;;;;;;23.70;4.82;;;11.70;99.90;;;11.12;99.21;100521.84;4088711;29;20078;-71
2020/12/19 08:04:38;;;;;;;31.75;5.32;;;11.70;99.90;;;11.08;99.54;100512.59;4087623;29;20028;-71
2020/12/19 08:06:45;;;;;;;21.17;5.13;;;11.70;99.90;;;11.13;99.37;100522.66;4088811;29;20038;-71
2020/12/19 08:08:57;;;;;;;27.27;5.43;;;11.70;99.90;;;11.14;99.15;100526.97;4105793;28;20114;-71
2020/12/19 08:11:03;;;;;;;32.25;5.70;;;11.80;99.90;;;11.21;98.96;100533.22;4104630;28;20023;-71
2020/12/19 08:13:10;;;;;;;24.15;5.13;;;11.80;99.90;;;11.15;99.15;100528.59;4088672;29;20095;-71
2020/12/19 08:15:18;;;;;;;29.13;5.72;;;11.80;99.90;;;11.05;99.52;100524.31;4088783;29;20019;-71
2020/12/19 08:17:19;;;;;;;32.53;5.72;;;11.80;99.90;;;11.16;99.16;100541.66;4104692;28;20031;-71